Terminal Aerodrome Forecast
Issued by NWS Huntsville, AL

Home | Current Version | Previous Version | Text Only | Print | Product List | Glossary On
Versions: 1 2 3 4 5 6 7 8 9 10 11 12
000
FTUS44 KHUN 212327
TAFHSV
TAF
KHSV 212327Z 2200/2224 VRB03KT P6SM SCT250
     FM220700 34006KT P6SM BKN250
     FM221000 36010KT P6SM SCT250
     FM221500 01010G17KT P6SM FEW250=

USA.gov is the U.S. government's official web portal to all federal, state and local government web resources and services.